Time;durP1;ratioP1;P1;durP2;ratioP2;P2;SDS_P1;SDS_P2;PMS_P1;PMS_P2;Temp;Humidity;BMP_temperature;BMP_pressure;BME280_temperature;BME280_humidity;BME280_pressure;Samples;Min_cycle;Max_cycle;Signal;HPM_P1;HPM_P2
2021/07/06 00:01:18;;;;;;;14.18;8.68;;;;;;;17.73;66.20;99956.58;2265217;78;29154;-74
2021/07/06 00:04:20;;;;;;;14.58;9.70;;;;;;;17.50;66.13;99921.97;2265119;78;27671;-72
2021/07/06 00:07:22;;;;;;;14.70;9.15;;;;;;;17.66;66.32;99963.02;2265181;78;29844;-73
2021/07/06 00:10:26;;;;;;;11.08;8.85;;;;;;;17.63;66.51;99960.56;2265249;77;30998;-73
2021/07/06 00:13:29;;;;;;;9.53;8.63;;;;;;;17.59;66.48;99960.45;2264839;77;33898;-71
2021/07/06 00:16:31;;;;;;;10.68;9.25;;;;;;;17.55;66.48;99957.16;2265138;78;30240;-70
2021/07/06 00:19:34;;;;;;;11.45;9.08;;;;;;;17.50;66.48;99962.09;2265360;78;27472;-62
2021/07/06 00:22:37;;;;;;;10.88;8.80;;;;;;;17.45;66.80;99957.58;2268692;77;29521;-61
2021/07/06 00:25:39;;;;;;;14.53;8.80;;;;;;;17.42;66.95;99964.59;2308183;77;32199;-66
2021/07/06 00:28:41;;;;;;;10.98;7.92;;;;;;;17.38;66.88;99965.33;2307840;77;33872;-67
2021/07/06 00:31:42;;;;;;;11.10;8.43;;;;;;;17.37;66.88;99962.77;2307122;77;30340;-72
2021/07/06 00:34:44;;;;;;;11.40;8.50;;;;;;;17.34;66.94;99961.19;2267700;77;27748;-70
2021/07/06 00:37:46;;;;;;;10.78;9.03;;;;;;;17.33;67.12;99962.64;2224431;80;29051;-72
2021/07/06 00:40:48;;;;;;;12.00;9.60;;;;;;;17.31;67.21;99964.14;2237270;77;31377;-73
2021/07/06 00:43:50;;;;;;;11.90;9.25;;;;;;;17.28;67.30;99965.74;2265504;78;33336;-67
2021/07/06 00:46:51;;;;;;;13.03;9.38;;;;;;;17.24;67.40;99961.56;2266217;77;29056;-71
2021/07/06 00:49:53;;;;;;;12.63;9.85;;;;;;;17.18;67.77;99962.94;2266455;77;27700;-68
2021/07/06 00:52:55;;;;;;;13.35;9.98;;;;;;;17.05;68.24;99947.36;2265437;78;29060;-70
2021/07/06 00:55:57;;;;;;;11.83;10.45;;;;;;;17.05;68.24;99947.36;2265567;78;31354;-64
2021/07/06 00:58:59;;;;;;;14.47;10.48;;;;;;;17.18;68.12;99971.06;2267610;77;32893;-68
2021/07/06 01:02:01;;;;;;;13.53;10.55;;;;;;;17.16;68.17;99965.79;2265528;78;30134;-72
2021/07/06 01:05:12;;;;;;;14.43;10.70;;;;;;;17.16;68.19;99968.49;2265688;78;27603;-71
2021/07/06 01:08:14;;;;;;;10.23;9.18;;;;;;;17.14;68.18;99966.88;2274471;77;29026;-67
2021/07/06 01:11:17;;;;;;;10.93;9.80;;;;;;;17.14;68.06;99966.88;2305806;77;31327;-68
2021/07/06 01:14:23;;;;;;;17.70;11.08;;;;;;;17.10;68.09;99963.58;2306629;76;34111;-72
2021/07/06 01:17:29;;;;;;;16.12;10.03;;;;;;;17.06;68.08;99962.61;2307162;77;29028;-72
2021/07/06 01:20:36;;;;;;;12.20;10.08;;;;;;;17.04;68.16;99955.11;2304886;77;27669;-71
2021/07/06 01:23:38;;;;;;;16.73;10.40;;;;;;;17.01;68.21;99954.87;2216230;78;29458;-67
2021/07/06 01:26:39;;;;;;;13.40;10.48;;;;;;;16.98;68.23;99949.20;2223127;80;32194;-67
2021/07/06 01:29:41;;;;;;;13.13;10.18;;;;;;;16.97;68.25;99949.34;2224600;79;34325;-69
2021/07/06 01:32:46;;;;;;;13.98;11.03;;;;;;;16.94;68.20;99945.02;2238436;77;30211;-69
2021/07/06 01:35:47;;;;;;;;;;;;;;;16.93;68.31;99951.89;2268058;78;27668;-71
2021/07/06 01:38:49;;;;;;;16.85;11.12;;;;;;;16.89;68.44;99949.06;2265189;78;29041;-68
2021/07/06 01:41:51;;;;;;;12.13;10.82;;;;;;;16.83;68.51;99953.14;2258446;77;32259;-71
2021/07/06 01:45:09;;;;;;;14.80;10.45;;;;;;;16.78;68.54;99958.93;2240212;77;33763;-73
2021/07/06 01:48:11;;;;;;;12.13;10.55;;;;;;;16.77;68.53;99960.42;2307163;77;29797;-73
2021/07/06 01:51:13;;;;;;;12.80;10.70;;;;;;;16.75;68.50;99948.86;2307530;77;27581;-73
2021/07/06 01:54:16;;;;;;;15.90;11.70;;;;;;;16.73;68.57;99950.31;2305782;77;29928;-70
2021/07/06 01:57:18;;;;;;;13.80;11.53;;;;;;;16.74;68.56;99949.84;2274668;76;31074;-68
2021/07/06 02:00:23;;;;;;;15.68;12.03;;;;;;;16.73;68.65;99942.71;2265924;77;32987;-71
2021/07/06 02:03:24;;;;;;;;;;;;;;;16.70;68.69;99935.21;2268473;78;29176;-71
2021/07/06 02:06:27;;;;;;;14.20;11.68;;;;;;;16.68;68.73;99938.53;2280408;77;27766;-68
2021/07/06 02:09:29;;;;;;;19.55;12.05;;;;;;;16.63;68.75;99938.03;2265635;78;29077;-73
2021/07/06 02:12:31;;;;;;;16.05;12.18;;;;;;;16.60;68.87;99947.77;2262701;77;31050;-62
2021/07/06 02:15:33;;;;;;;14.85;11.70;;;;;;;16.57;68.97;99946.66;2237392;78;34289;-61
2021/07/06 02:18:35;;;;;;;13.75;12.15;;;;;;;16.55;69.04;99940.52;2235354;79;29682;-59
2021/07/06 02:21:37;;;;;;;18.05;12.93;;;;;;;16.53;69.13;99939.30;2235604;79;27616;-59
2021/07/06 02:24:39;;;;;;;16.60;13.15;;;;;;;16.51;69.25;99939.91;2235246;78;30015;-61
2021/07/06 02:27:45;;;;;;;16.37;12.55;;;;;;;16.51;69.10;99948.50;2196302;81;31346;-63
2021/07/06 02:30:47;;;;;;;16.90;13.32;;;;;;;16.50;69.23;99946.77;2196193;81;32912;-69
2021/07/06 02:33:49;;;;;;;18.70;14.13;;;;;;;16.48;69.19;99952.31;2196520;81;29373;-73
2021/07/06 02:36:51;;;;;;;15.23;12.10;;;;;;;16.47;69.28;99951.95;2223210;78;28225;-65
2021/07/06 02:39:53;;;;;;;13.38;11.48;;;;;;;16.44;69.27;99949.48;2235237;79;29476;-65
2021/07/06 02:42:56;;;;;;;17.55;12.80;;;;;;;16.44;69.23;99954.05;2214652;79;31967;-64
2021/07/06 02:45:58;;;;;;;17.07;12.73;;;;;;;16.43;69.30;99955.87;2220089;78;33639;-62
2021/07/06 02:48:59;;;;;;;18.48;14.33;;;;;;;16.44;69.43;99956.75;2275369;78;29382;-62
2021/07/06 02:52:01;;;;;;;18.70;14.80;;;;;;;16.45;69.76;99947.15;2275840;78;27713;-64
2021/07/06 02:55:08;;;;;;;20.97;14.38;;;;;;;16.46;69.89;99952.92;2276076;78;29901;-61
2021/07/06 02:58:11;;;;;;;20.30;13.80;;;;;;;16.48;69.95;99950.97;2275689;78;31565;-66
2021/07/06 03:01:13;;;;;;;21.45;14.47;;;;;;;16.49;69.87;99949.98;2273341;78;33341;-65
2021/07/06 03:04:14;;;;;;;20.08;14.80;;;;;;;16.52;70.11;99951.57;2236765;78;28896;-59
2021/07/06 03:07:16;;;;;;;20.00;15.48;;;;;;;16.50;70.16;99946.77;2210133;78;27794;-60
2021/07/06 03:10:23;;;;;;;19.45;16.05;;;;;;;16.53;70.11;99951.94;2194684;81;30021;-60
2021/07/06 03:13:26;;;;;;;21.50;16.15;;;;;;;16.56;70.10;99953.05;2223486;78;32365;-64
2021/07/06 03:16:27;;;;;;;20.27;15.10;;;;;;;16.59;70.14;99963.63;2195869;81;33067;-58
2021/07/06 03:19:29;;;;;;;20.57;14.25;;;;;;;16.63;70.18;99961.53;2194995;81;29408;-59
2021/07/06 03:22:35;;;;;;;19.10;13.72;;;;;;;16.67;70.10;99954.89;2224955;78;27995;-58
2021/07/06 03:25:37;;;;;;;17.40;14.28;;;;;;;16.72;70.25;99956.71;2236375;78;29897;-58
2021/07/06 03:28:41;;;;;;;20.45;15.80;;;;;;;16.80;70.24;99961.50;2235281;79;31023;-59
2021/07/06 03:31:43;;;;;;;18.40;15.72;;;;;;;16.85;70.26;99959.29;2237243;78;33005;-59
2021/07/06 03:34:46;;;;;;;22.30;14.93;;;;;;;16.91;70.21;99963.33;2234976;79;29589;-59
2021/07/06 03:37:47;;;;;;;20.77;15.72;;;;;;;16.92;70.39;99961.88;2235323;79;27712;-58
2021/07/06 03:40:49;;;;;;;18.35;15.13;;;;;;;16.95;70.32;99964.84;2235270;79;29719;-59
2021/07/06 03:43:51;;;;;;;19.95;14.75;;;;;;;17.01;70.39;99957.58;2237311;78;32482;-59
2021/07/06 03:46:55;;;;;;;17.77;13.15;;;;;;;17.09;70.39;99952.38;2235360;79;33310;-59
2021/07/06 03:49:57;;;;;;;17.90;12.30;;;;;;;17.17;70.51;99951.75;2235044;79;30177;-59
2021/07/06 03:53:00;;;;;;;15.20;12.45;;;;;;;17.23;70.47;99951.25;2244788;78;27745;-59
2021/07/06 03:56:01;;;;;;;16.80;13.40;;;;;;;17.33;70.42;99961.30;2265000;78;29468;-59
2021/07/06 03:59:04;;;;;;;15.58;12.70;;;;;;;17.42;70.44;99967.31;2235396;79;32156;-59
2021/07/06 04:02:06;;;;;;;15.88;13.88;;;;;;;17.50;70.42;99963.45;2234854;79;34157;-59
2021/07/06 04:05:11;;;;;;;15.72;13.58;;;;;;;17.59;70.32;99961.80;2235288;79;30131;-59
2021/07/06 04:08:15;;;;;;;16.35;13.35;;;;;;;17.67;70.31;99963.86;2258276;78;27694;-59
2021/07/06 04:11:17;;;;;;;15.63;13.10;;;;;;;17.75;70.21;99960.86;2245397;78;28286;-69
2021/07/06 04:14:20;;;;;;;15.35;13.50;;;;;;;17.83;70.18;99947.17;2233686;78;31406;-64
2021/07/06 04:17:25;;;;;;;17.60;12.60;;;;;;;17.77;70.25;99937.72;2234980;78;33824;-65
2021/07/06 04:20:33;;;;;;;17.60;12.55;;;;;;;17.96;70.04;99957.78;2235415;79;29027;-69
2021/07/06 04:23:44;;;;;;;13.78;11.90;;;;;;;18.03;69.93;99962.61;2262894;78;27873;-70
2021/07/06 04:26:53;;;;;;;14.20;10.65;;;;;;;18.12;69.91;99964.98;2272814;78;29921;-66
2021/07/06 04:30:08;;;;;;;12.28;8.38;;;;;;;18.36;69.97;99963.36;2275882;78;31706;-65
2021/07/06 04:33:14;;;;;;;12.00;8.90;;;;;;;18.36;69.97;99963.36;2275250;78;34211;-70
2021/07/06 04:36:24;;;;;;;9.45;7.65;;;;;;;18.49;69.60;99963.11;2275821;78;29014;-70
2021/07/06 04:39:31;;;;;;;10.10;7.08;;;;;;;18.63;69.36;99970.03;2257756;78;27673;-69
2021/07/06 04:42:40;;;;;;;10.35;7.35;;;;;;;18.75;69.23;99961.30;2219202;79;29367;-72
2021/07/06 04:45:49;;;;;;;8.15;7.15;;;;;;;18.89;69.05;99966.83;2200203;79;31132;-70
2021/07/06 04:48:53;;;;;;;11.03;6.97;;;;;;;19.12;69.00;99962.56;2207920;79;30730;-71
2021/07/06 04:51:56;;;;;;;7.05;6.25;;;;;;;19.98;69.68;99969.20;2236174;78;29126;-70
2021/07/06 04:54:58;;;;;;;6.50;5.90;;;;;;;21.14;69.24;99966.69;2235286;79;28206;-72
2021/07/06 04:58:00;;;;;;;8.03;5.03;;;;;;;22.45;67.83;99973.80;2235169;79;29123;-72
2021/07/06 05:01:02;;;;;;;8.93;5.28;;;;;;;23.72;66.19;99973.55;2236026;78;31928;-69
2021/07/06 05:04:04;;;;;;;5.20;4.70;;;;;;;24.94;64.40;99970.79;2235390;78;34251;-71
2021/07/06 05:07:07;;;;;;;10.10;4.83;;;;;;;26.13;62.74;99968.80;2235007;79;29791;-71
2021/07/06 05:10:12;;;;;;;9.73;4.08;;;;;;;27.25;60.77;99968.36;2227012;79;27843;-72
2021/07/06 05:13:14;;;;;;;10.60;4.53;;;;;;;28.15;58.30;99960.59;2227650;78;28633;-71
2021/07/06 05:16:16;;;;;;;5.20;4.58;;;;;;;29.07;56.88;99963.23;2233820;79;31959;-70
2021/07/06 05:19:18;;;;;;;7.22;4.35;;;;;;;29.97;55.44;99969.63;2255235;78;33174;-74
2021/07/06 05:22:21;;;;;;;8.05;3.80;;;;;;;30.72;53.51;99973.50;2250489;78;29234;-71
2021/07/06 05:25:23;;;;;;;5.58;3.60;;;;;;;31.41;51.59;99972.99;2195663;81;33432;-69
2021/07/06 05:28:25;;;;;;;5.72;3.10;;;;;;;31.95;50.10;99976.26;2223113;78;28616;-71
2021/07/06 05:31:27;;;;;;;9.03;3.37;;;;;;;32.56;49.16;99979.36;2235618;79;31068;-72
2021/07/06 05:34:29;;;;;;;4.03;2.72;;;;;;;33.13;47.47;99982.44;2235012;79;34190;-74
2021/07/06 05:37:31;;;;;;;4.40;3.02;;;;;;;33.58;46.33;99986.77;2246172;78;30180;-70
2021/07/06 05:40:38;;;;;;;4.40;3.40;;;;;;;33.98;43.94;99990.88;2275812;78;27695;-64
2021/07/06 05:43:38;;;;;;;8.50;3.60;;;;;;;34.36;43.45;99989.58;2275621;78;28628;-68
2021/07/06 05:46:41;;;;;;;7.67;3.08;;;;;;;34.72;42.33;99992.35;2275623;78;31877;-67
2021/07/06 05:49:45;;;;;;;4.20;2.77;;;;;;;35.06;41.31;99994.50;2236516;78;32960;-63
2021/07/06 05:52:49;;;;;;;8.18;3.58;;;;;;;35.39;40.56;99990.14;2235048;79;28976;-70
2021/07/06 05:55:57;;;;;;;10.93;2.85;;;;;;;35.76;39.72;99990.28;2248237;78;27711;-70
2021/07/06 05:59:03;;;;;;;4.87;2.67;;;;;;;36.08;38.94;99992.52;2275973;78;28724;-66
2021/07/06 06:02:06;;;;;;;4.20;2.35;;;;;;;36.34;37.72;99988.20;2276070;78;31086;-69
2021/07/06 06:05:09;;;;;;;3.95;2.65;;;;;;;36.68;37.17;99990.95;2275662;78;34183;-69
2021/07/06 06:08:14;;;;;;;4.45;2.35;;;;;;;36.95;35.40;99997.19;2273581;78;29369;-64
2021/07/06 06:11:16;;;;;;;4.03;2.22;;;;;;;37.14;35.13;99996.33;2228151;78;27697;-66
2021/07/06 06:14:18;;;;;;;6.33;2.35;;;;;;;37.37;34.42;99991.00;2212415;77;29520;-68
2021/07/06 06:17:23;;;;;;;5.10;2.20;;;;;;;37.61;34.08;99995.45;2275328;78;32383;-69
2021/07/06 06:20:34;;;;;;;5.53;2.30;;;;;;;37.80;33.39;99982.78;2275946;78;33001;-69
2021/07/06 06:23:39;;;;;;;5.75;2.20;;;;;;;38.09;32.76;99985.83;2273818;78;29026;-69
2021/07/06 06:26:41;;;;;;;2.52;1.95;;;;;;;38.35;32.39;99988.83;2241315;78;27633;-68
2021/07/06 06:29:44;;;;;;;8.53;2.20;;;;;;;38.61;31.57;99987.06;2195238;79;29991;-70
2021/07/06 06:32:45;;;;;;;2.98;1.85;;;;;;;38.81;31.31;99986.85;2195430;81;31858;-63
2021/07/06 06:35:47;;;;;;;7.05;1.80;;;;;;;38.99;30.52;99981.38;2226471;78;33923;-70
2021/07/06 06:38:49;;;;;;;5.42;1.85;;;;;;;38.99;29.65;99988.38;2234295;79;30373;-63
2021/07/06 06:41:51;;;;;;;10.10;2.17;;;;;;;39.02;29.70;99988.67;2235585;79;27651;-68
2021/07/06 06:44:53;;;;;;;2.92;2.02;;;;;;;39.23;29.62;99988.74;2237882;78;29849;-71
2021/07/06 06:47:57;;;;;;;4.70;1.72;;;;;;;39.40;29.51;99993.30;2235336;79;32172;-72
2021/07/06 06:50:59;;;;;;;1.95;1.45;;;;;;;39.68;28.69;99992.50;2214138;79;33833;-65
2021/07/06 06:54:01;;;;;;;1.60;1.40;;;;;;;39.99;28.50;99987.78;2236487;78;30220;-67
2021/07/06 06:57:04;;;;;;;5.78;2.10;;;;;;;40.19;27.87;99988.93;2275545;78;27800;-66
2021/07/06 07:00:08;;;;;;;3.55;1.50;;;;;;;40.38;27.39;99982.98;2273712;78;28642;-68
2021/07/06 07:03:10;;;;;;;3.45;1.57;;;;;;;40.41;27.00;99977.38;2217611;78;31084;-65
2021/07/06 07:06:12;;;;;;;3.20;1.37;;;;;;;40.39;26.56;99979.05;2195647;81;34188;-64
2021/07/06 07:09:14;;;;;;;4.12;1.67;;;;;;;40.54;26.46;99982.97;2196072;81;30202;-64
2021/07/06 07:12:17;;;;;;;3.10;1.20;;;;;;;40.67;26.21;99986.61;2234893;78;27671;-67
2021/07/06 07:15:20;;;;;;;1.87;1.25;;;;;;;40.75;25.92;99976.75;2209323;79;28760;-64
2021/07/06 07:18:22;;;;;;;1.97;1.40;;;;;;;40.78;25.70;99980.39;2194743;81;31307;-66
2021/07/06 07:21:23;;;;;;;1.37;1.30;;;;;;;40.92;25.51;99979.77;2195392;78;34237;-63
2021/07/06 07:24:26;;;;;;;3.72;1.42;;;;;;;41.02;25.27;99972.69;2275326;78;29393;-64
2021/07/06 07:27:28;;;;;;;5.03;2.90;;;;;;;41.09;24.98;99978.87;2247476;78;27775;-63
2021/07/06 07:30:30;;;;;;;2.85;1.90;;;;;;;41.18;24.69;99981.06;2268639;78;29879;-63
2021/07/06 07:33:32;;;;;;;2.12;1.70;;;;;;;41.21;24.76;99974.88;2234839;79;31872;-67
2021/07/06 07:36:35;;;;;;;2.23;1.63;;;;;;;41.29;24.68;99979.87;2235466;79;33455;-62
2021/07/06 07:39:37;;;;;;;3.77;1.35;;;;;;;41.39;24.25;99971.94;2235146;79;29885;-66
2021/07/06 07:42:39;;;;;;;1.35;1.25;;;;;;;41.43;23.70;99976.70;2237827;78;27763;-67
2021/07/06 07:45:42;;;;;;;2.72;1.40;;;;;;;41.20;23.54;99968.97;2235325;79;29835;-67
2021/07/06 07:48:45;;;;;;;1.30;1.20;;;;;;;41.22;23.91;99968.95;2235111;79;31829;-66
2021/07/06 07:51:47;;;;;;;1.50;1.40;;;;;;;41.16;23.62;99965.33;2237090;78;33030;-68
2021/07/06 07:54:49;;;;;;;1.20;1.10;;;;;;;41.16;23.61;99967.31;2216069;79;29445;-69
2021/07/06 07:57:51;;;;;;;1.85;1.05;;;;;;;41.15;23.59;99969.27;2195882;81;27730;-69
2021/07/06 08:00:53;;;;;;;2.10;1.30;;;;;;;41.22;23.74;99970.93;2195506;81;29114;-74
2021/07/06 08:03:54;;;;;;;2.77;1.35;;;;;;;41.30;23.41;99976.78;2230340;78;31081;-69
2021/07/06 08:06:56;;;;;;;2.22;1.22;;;;;;;41.37;23.30;99975.63;2242191;78;32938;-78
2021/07/06 08:09:58;;;;;;;3.27;1.50;;;;;;;41.43;22.93;99974.45;2234210;79;29885;-63
2021/07/06 08:12:59;;;;;;;2.90;1.67;;;;;;;41.41;22.84;99971.94;2234802;79;27684;-67
2021/07/06 08:16:04;;;;;;;3.77;2.20;;;;;;;41.35;22.95;99977.31;2239625;78;29765;-68
2021/07/06 08:19:06;;;;;;;3.22;1.55;;;;;;;41.30;22.84;99966.09;2230186;78;32233;-69
2021/07/06 08:22:08;;;;;;;1.55;1.45;;;;;;;41.31;23.05;99973.39;2233809;79;34115;-64
2021/07/06 08:25:12;;;;;;;1.95;1.32;;;;;;;41.26;22.37;99967.83;2231252;79;30103;-66
2021/07/06 08:28:13;;;;;;;2.17;1.35;;;;;;;41.25;22.43;99966.14;2231157;79;27751;-66
2021/07/06 08:31:15;;;;;;;1.98;1.50;;;;;;;41.03;22.43;99968.75;2230683;79;29899;-70
2021/07/06 08:34:17;;;;;;;2.65;1.45;;;;;;;40.89;22.70;99964.31;2230921;79;32054;-69
2021/07/06 08:37:19;;;;;;;4.40;1.60;;;;;;;40.89;22.85;99954.48;2234542;79;33330;-70
2021/07/06 08:40:22;;;;;;;1.75;1.37;;;;;;;40.91;22.40;99953.63;2196099;79;30016;-66
2021/07/06 08:43:25;;;;;;;4.20;1.40;;;;;;;40.78;22.58;99948.09;2194220;81;28050;-65
2021/07/06 08:46:28;;;;;;;1.82;1.20;;;;;;;40.77;22.55;99954.83;2195765;79;29427;-61
2021/07/06 08:49:30;;;;;;;9.25;1.50;;;;;;;40.68;22.66;99959.34;2194775;81;32227;-62
2021/07/06 08:52:33;;;;;;;3.37;1.10;;;;;;;40.62;22.43;99958.50;2195428;81;34160;-62
2021/07/06 08:55:36;;;;;;;1.50;1.05;;;;;;;40.57;22.40;99948.67;2234381;78;29022;-63
2021/07/06 08:58:38;;;;;;;1.37;1.12;;;;;;;40.51;22.01;99953.47;2218281;79;37348;-63
2021/07/06 09:01:41;;;;;;;1.15;1.10;;;;;;;40.27;22.37;99955.23;2217565;78;28705;-61
2021/07/06 09:04:46;;;;;;;1.12;1.07;;;;;;;40.08;22.58;99956.63;2234707;79;32234;-63
2021/07/06 09:07:49;;;;;;;2.52;1.25;;;;;;;39.93;22.74;99950.48;2271118;78;33013;-61
2021/07/06 09:10:52;;;;;;;1.60;1.27;;;;;;;39.88;22.80;99946.84;2247549;78;45655;-62
2021/07/06 09:13:57;;;;;;;1.85;1.52;;;;;;;39.91;22.79;99954.67;2237887;78;27722;-61
2021/07/06 09:17:17;;;;;;;1.72;1.20;;;;;;;39.90;22.82;99954.39;2192491;79;30028;-62
2021/07/06 09:20:19;;;;;;;2.05;1.30;;;;;;;39.74;22.74;99949.36;2227500;79;31907;-61
2021/07/06 09:23:35;;;;;;;2.67;1.22;;;;;;;39.27;22.58;99940.84;2239213;77;33825;-61
2021/07/06 09:26:36;;;;;;;1.20;1.10;;;;;;;38.90;22.81;99946.05;2268019;78;31036;-61
2021/07/06 09:29:41;;;;;;;1.12;1.12;;;;;;;38.19;22.58;99946.75;2265279;78;27675;-62
2021/07/06 09:32:47;;;;;;;1.42;1.32;;;;;;;37.85;23.10;99940.04;2224171;79;29949;-62
2021/07/06 09:35:49;;;;;;;2.87;1.27;;;;;;;37.72;23.75;99939.92;2310575;77;31081;-62
2021/07/06 09:39:19;;;;;;;2.27;1.10;;;;;;;37.52;23.98;99935.83;2270393;76;34324;-61
2021/07/06 09:42:21;;;;;;;1.72;1.00;;;;;;;37.47;24.32;99927.95;2270489;77;29739;-62
2021/07/06 09:45:24;;;;;;;3.15;1.05;;;;;;;37.24;24.23;99927.99;2263900;78;27704;-64
2021/07/06 09:48:28;;;;;;;2.80;1.20;;;;;;;36.83;24.34;99928.05;2265730;78;28466;-66
2021/07/06 09:51:30;;;;;;;3.15;1.07;;;;;;;36.63;24.67;99922.49;2265054;78;31044;-63
2021/07/06 09:54:39;;;;;;;2.47;1.07;;;;;;;36.48;25.09;99920.36;2210985;78;33668;-63
2021/07/06 09:57:41;;;;;;;1.87;1.25;;;;;;;36.23;24.83;99920.25;2272158;77;29642;-65
2021/07/06 10:00:43;;;;;;;2.10;1.20;;;;;;;35.81;25.35;99917.34;2264346;78;27640;-64
2021/07/06 10:03:46;;;;;;;3.65;1.30;;;;;;;35.46;25.87;99913.41;2263433;78;29878;-65
2021/07/06 10:06:48;;;;;;;3.08;1.45;;;;;;;35.30;26.41;99911.71;2269040;78;32420;-65
2021/07/06 10:09:51;;;;;;;1.95;0.90;;;;;;;35.14;26.45;99900.82;2268875;78;33974;-65
2021/07/06 10:12:55;;;;;;;1.15;1.05;;;;;;;35.01;26.63;99896.39;2269457;78;29484;-64
2021/07/06 10:15:57;;;;;;;3.77;0.95;;;;;;;34.88;26.85;99898.91;2258275;78;27733;-67
2021/07/06 10:18:59;;;;;;;1.30;1.10;;;;;;;34.64;26.86;99912.05;2214692;79;28690;-66
2021/07/06 10:22:01;;;;;;;1.20;1.10;;;;;;;34.43;26.99;99900.48;2195149;79;31915;-65
2021/07/06 10:25:07;;;;;;;4.83;1.00;;;;;;;34.33;27.23;99895.50;2195608;81;32952;-64
2021/07/06 10:28:16;;;;;;;7.00;1.35;;;;;;;34.23;27.26;99891.95;2195238;81;29915;-64
2021/07/06 10:31:20;;;;;;;1.55;0.90;;;;;;;33.81;26.80;99895.36;2196295;81;27666;-65
2021/07/06 10:34:22;;;;;;;;;;;;;;;33.44;27.37;99886.68;2198941;81;28644;-61
2021/07/06 10:37:29;;;;;;;0.95;0.95;;;;;;;33.39;27.90;99892.95;2196034;81;30879;-66
2021/07/06 10:40:36;;;;;;;3.40;1.32;;;;;;;33.36;28.06;99896.73;2195993;81;33801;-62
2021/07/06 10:43:46;;;;;;;3.60;1.10;;;;;;;33.32;28.15;99897.72;2195016;81;28995;-64
2021/07/06 10:46:49;;;;;;;0.72;0.72;;;;;;;33.39;28.51;99888.79;2247985;78;27644;-63
2021/07/06 10:49:52;;;;;;;1.47;0.95;;;;;;;33.44;28.80;99890.29;2235194;79;28684;-61
2021/07/06 10:53:22;;;;;;;3.33;1.35;;;;;;;33.41;28.43;99897.73;2268956;78;31183;-65
2021/07/06 10:56:30;;;;;;;3.45;0.95;;;;;;;33.28;28.04;99896.49;2273579;78;32960;-64
2021/07/06 10:59:36;;;;;;;3.67;1.00;;;;;;;32.97;28.44;99877.09;2274633;78;29841;-64
2021/07/06 11:02:38;;;;;;;5.08;1.00;;;;;;;32.80;28.89;99871.86;2226778;79;27925;-70
2021/07/06 11:05:40;;;;;;;1.50;0.80;;;;;;;32.61;29.11;99868.25;2234090;79;29637;-65
2021/07/06 11:08:42;;;;;;;1.12;0.82;;;;;;;32.38;28.91;99871.20;2234838;79;32245;-68
2021/07/06 11:11:45;;;;;;;2.35;1.10;;;;;;;32.14;29.19;99876.54;2260291;78;34144;-65
2021/07/06 11:14:52;;;;;;;1.00;1.00;;;;;;;31.91;29.36;99867.51;2238536;78;28815;-68
2021/07/06 11:18:04;;;;;;;6.83;1.20;;;;;;;31.75;29.84;99863.41;2194867;79;27677;-71
2021/07/06 11:21:27;;;;;;;2.15;0.75;;;;;;;31.61;29.97;99860.70;2213645;78;29946;-73
2021/07/06 11:24:31;;;;;;;2.67;1.10;;;;;;;31.44;30.57;99863.20;2234483;79;31004;-64
2021/07/06 11:28:17;;;;;;;0.80;0.80;;;;;;;31.37;30.79;99851.31;2154250;81;34196;-64
2021/07/06 11:31:20;;;;;;;0.82;0.82;;;;;;;31.31;30.81;99849.47;2231896;78;29171;-65
2021/07/06 11:34:22;;;;;;;4.87;1.35;;;;;;;31.19;30.62;99845.19;2276135;78;27681;-64
2021/07/06 11:37:24;;;;;;;1.77;1.22;;;;;;;31.04;30.77;99849.08;2275613;78;29011;-64
2021/07/06 11:40:26;;;;;;;2.47;1.12;;;;;;;30.96;31.16;99845.18;2205172;78;31909;-63
2021/07/06 11:43:30;;;;;;;3.37;0.90;;;;;;;30.95;31.57;99860.62;2233860;79;34111;-63
2021/07/06 11:46:32;;;;;;;;;;;;;;;30.99;31.63;99856.36;2238006;79;29000;-63
2021/07/06 11:49:35;;;;;;;1.72;1.00;;;;;;;31.04;31.65;99856.52;2235323;79;28072;-64
2021/07/06 11:52:43;;;;;;;4.15;1.05;;;;;;;30.96;31.29;99855.41;2269344;78;29852;-64
2021/07/06 11:55:45;;;;;;;0.85;0.85;;;;;;;30.82;31.61;99846.33;2275498;78;31862;-64
2021/07/06 11:58:48;;;;;;;1.87;1.05;;;;;;;30.78;31.70;99835.42;2276049;78;32297;-64
2021/07/06 12:01:52;;;;;;;4.17;1.00;;;;;;;30.64;31.17;99829.94;2253530;78;28540;-63
2021/07/06 12:04:54;;;;;;;4.05;0.80;;;;;;;30.43;31.44;99823.64;2206786;79;27970;-63
2021/07/06 12:08:02;;;;;;;1.50;0.60;;;;;;;30.34;32.22;99831.84;2247114;78;28633;-63
2021/07/06 12:11:22;;;;;;;2.05;0.90;;;;;;;30.27;32.24;99826.34;2232888;79;31010;-63
2021/07/06 12:14:24;;;;;;;3.70;1.10;;;;;;;30.24;32.33;99819.03;2235292;79;33547;-63
2021/07/06 12:17:29;;;;;;;2.25;1.10;;;;;;;30.25;31.79;99811.06;2226008;78;29850;-63
2021/07/06 12:20:32;;;;;;;3.40;1.12;;;;;;;30.22;31.96;99816.47;2147636;82;28015;-63
2021/07/06 12:23:37;;;;;;;2.35;0.90;;;;;;;30.17;31.94;99812.16;2175445;81;29112;-63
2021/07/06 12:26:48;;;;;;;4.05;1.22;;;;;;;30.20;31.98;99803.40;2173490;80;31071;-64
2021/07/06 12:30:02;;;;;;;2.45;1.17;;;;;;;30.22;32.07;99794.91;2218684;80;33086;-64
2021/07/06 12:33:06;;;;;;;5.37;1.25;;;;;;;30.25;32.51;99796.70;2185611;81;37235;-65
2021/07/06 12:36:08;;;;;;;;;;;;;;;30.31;32.58;99797.73;2195943;80;27634;-64
2021/07/06 12:39:26;;;;;;;3.40;1.40;;;;;;;30.34;32.77;99790.94;2222753;79;29882;-64
2021/07/06 12:42:31;;;;;;;1.92;1.00;;;;;;;30.35;32.50;99789.33;2224488;80;32167;-62
2021/07/06 12:45:33;;;;;;;1.02;0.93;;;;;;;30.37;32.73;99789.09;2222324;79;33678;-61
2021/07/06 12:48:35;;;;;;;12.03;10.73;;;;;;;30.38;32.49;99783.88;2221315;80;29882;-61
2021/07/06 12:51:58;;;;;;;1.47;1.20;;;;;;;30.39;32.80;99786.96;2224548;79;27550;-61
2021/07/06 12:55:25;;;;;;;1.35;0.88;;;;;;;30.40;32.60;99785.38;2223774;79;28661;-61
2021/07/06 12:58:29;;;;;;;2.20;1.02;;;;;;;30.40;32.75;99782.61;2186902;79;31822;-61
2021/07/06 13:01:33;;;;;;;1.30;1.20;;;;;;;30.40;32.94;99780.37;2185682;81;33798;-61
2021/07/06 13:04:58;;;;;;;;;;;;;;;30.41;33.07;99784.31;2188402;81;29023;-62
2021/07/06 13:08:00;;;;;;;2.80;0.90;;;;;;;30.36;33.10;99781.90;2188212;80;27678;-62
2021/07/06 13:11:12;;;;;;;1.35;1.10;;;;;;;30.31;33.07;99772.86;2162935;82;29855;-61
2021/07/06 13:14:20;;;;;;;2.15;1.10;;;;;;;30.35;33.47;99769.98;2148762;82;32515;-61
2021/07/06 13:17:30;;;;;;;1.42;1.17;;;;;;;30.41;33.70;99773.26;2194545;79;33015;-62
2021/07/06 13:20:36;;;;;;;3.70;1.45;;;;;;;30.52;34.00;99773.62;2229485;79;29230;-61
2021/07/06 13:23:40;;;;;;;12.45;1.72;;;;;;;30.66;33.39;99777.20;2229016;79;27587;-62
2021/07/06 13:26:42;;;;;;;2.75;1.30;;;;;;;30.68;33.13;99768.16;2229657;79;28692;-61
2021/07/06 13:29:44;;;;;;;1.22;1.20;;;;;;;30.69;33.29;99768.47;2229626;79;31009;-63
2021/07/06 13:32:48;;;;;;;2.22;1.40;;;;;;;30.76;33.16;99762.34;2229294;79;34188;-62
2021/07/06 13:35:53;;;;;;;1.20;1.10;;;;;;;30.85;33.35;99761.02;2229248;79;29855;-61
2021/07/06 13:38:55;;;;;;;3.12;1.65;;;;;;;30.96;33.41;99758.59;2190934;81;27714;-69
2021/07/06 13:41:57;;;;;;;3.90;1.60;;;;;;;31.06;33.64;99755.64;2150632;82;29900;-61
2021/07/06 13:44:59;;;;;;;5.33;4.03;;;;;;;31.15;33.16;99757.63;2150474;82;32127;-61
2021/07/06 13:48:01;;;;;;;6.15;3.45;;;;;;;31.09;32.75;99758.48;2180056;79;33626;-61
2021/07/06 13:51:04;;;;;;;2.92;1.45;;;;;;;30.96;32.89;99753.06;2229127;79;30216;-61
2021/07/06 13:54:07;;;;;;;3.50;1.30;;;;;;;30.90;33.16;99757.02;2227518;78;28254;-61
2021/07/06 13:57:12;;;;;;;2.65;1.25;;;;;;;30.88;33.31;99750.86;2203214;80;29714;-61
2021/07/06 14:00:14;;;;;;;4.10;1.10;;;;;;;30.78;33.01;99741.39;2237300;79;32356;-61
2021/07/06 14:03:17;;;;;;;4.83;1.32;;;;;;;30.74;33.37;99745.12;2237092;79;33894;-61
2021/07/06 14:06:19;;;;;;;5.22;1.42;;;;;;;30.69;33.42;99740.81;2217752;79;30223;-60
2021/07/06 14:09:22;;;;;;;4.42;2.75;;;;;;;30.63;33.45;99742.52;2229547;79;27754;-61
2021/07/06 14:12:24;;;;;;;3.98;1.90;;;;;;;30.66;33.70;99743.47;2229534;79;29931;-60
2021/07/06 14:15:27;;;;;;;2.40;1.30;;;;;;;30.73;33.63;99742.04;2229155;79;32248;-60
2021/07/06 14:18:29;;;;;;;1.75;1.37;;;;;;;30.85;33.69;99749.95;2206246;79;34189;-61
2021/07/06 14:21:31;;;;;;;6.35;1.72;;;;;;;30.97;33.68;99743.69;2225123;80;30062;-61